65 W. 11th
Daily Schedule - 4/24/2017 12:58:14 PM
 
CID
Course Name
Begin Time
End Time
Instructor
Building
Room
LC7716(X) Writing the Essay II 08:00 09:40 Corcoran, L. R. 65 W. 11th 102
LC8288(AX) The Art of Information 09:00 11:40 Coburn, T. S. 65 W. 11th 050
JZ5294(A) Jazz in Its Social Contexts 10:00 11:20 Rapport, E. J. 65 W. 11th 500
LC5430(A) Foundations of Physics 10:00 11:40 Bastos, P. L. 65 W. 11th 464
LC6913(A) RFW Non-Fiction 10:00 11:40 Walters, W. S. 65 W. 11th 259
LC6990(A) RFW: Journalism 10:00 11:40 Dray, P. L. 65 W. 11th 102
LC7015(A) Energy & Sustainability 10:00 11:40 Venkataraman, B. K. 65 W. 11th 465
LC7943(A) Postwar Fiction 10:00 11:40 Neuman, J. 65 W. 11th 263
LC7961(A) New Narrative 10:00 11:40 Donovan, T. A. 65 W. 11th 262
LC2988(A) Pre-Calculus 10:15 11:30 Koehler, J. F. 65 W. 11th 258
NS6772(A) Arabic Intro 2 10:15 11:30 Maiki, I. A. 65 W. 11th 260
LC1531(A) Writing the Essay II 11:55 13:35 Nadal, P. F. 65 W. 11th 260
LC3373(L) Writing the Essay II 11:55 13:35 Bandele, N. 65 W. 11th 263
LC5198(A) News, Narrative & Design I 11:55 13:35 Navarro, M. 65 W. 11th 102
LC6929(A) Buddhism & Cognitive Sci 11:55 13:35 Kelley, C. D. 65 W. 11th 258
LC6988(C) News, Narrative & Design II 11:55 13:35 Regatao, G. C. 65 W. 11th 465
LC7742(A) Climate Justice 11:55 13:35 Ramirez, J. I. 65 W. 11th 464
NS8348(A) Climate Justice 11:55 13:35 Ramirez, J. I. 65 W. 11th 464
LC5457(C) Quant. Reasoning II 12:00 13:15 Flek, R. 65 W. 11th 050
PS7008(G) Integrative Studio 2 12:10 17:50 Cho, E. 65 W. 11th 262
LC2351(A) Intermediate Poetry 13:50 15:30 Donovan, T. A. 65 W. 11th 263
LC3211(A) Advanced Non-Fiction 13:50 15:30 Kendall, E. 65 W. 11th 258
LC5165(A) Intro to Playwriting 13:50 15:30 Olesker, E. J. 65 W. 11th 259
LC5199(B) News, Narrative & Design I 13:50 15:30 Navarro, M. 65 W. 11th 102
LC8291(A) Environment Health in Lat. Am. 13:50 15:30 Ramirez, J. I. 65 W. 11th 464
LC8292(A) IS Capstone 13:50 15:30 Venkataraman, B. K. 65 W. 11th 465
LC5462(E) Quant. Reasoning II 14:00 15:15 Flek, R. 65 W. 11th 050
LC6654(A) Dean's Honor Symposium 14:00 15:00 Castro, J. E. D. 65 W. 11th 354C
LC6664(D) Dean's Honor Symposium 15:00 16:00 Delano, A. 65 W. 11th 354C
LC6666(F) Dean's Honor Symposium 15:00 16:00 Brooks, C. R. 65 W. 11th 101
LC3372(A) Writing the Essay I 15:50 17:30 Nadal, P. F. 65 W. 11th 261
LC5201(AX) Ethics & History of Journalism 15:50 18:30 Stellin, S. 65 W. 11th 102
LC6048(A) Sculpture, Performance, Social 15:50 17:30 Zavitsanos, C. 65 W. 11th 259
LC8384(A) Science/Fiction 15:50 18:30 Levitt, D. 65 W. 11th 263
PS5653(A) Spatial Studies: Olympic City 15:50 17:40 Traganou, G. 65 W. 11th 260
PS7140(G) New Design Firms 15:50 18:30 Meer, J. D. v. d. 65 W. 11th 258
LC6669(I) Dean's Honor Symposium 16:00 17:00 Ugurlu, Z. 65 W. 11th 354C
NS3294(A) Human Rights Research&Advocacy 16:00 17:50 Varia, N. M. 65 W. 11th 050
NS3294(A) Human Rights Research&Advocacy 16:00 17:50 Mollmann, M. 65 W. 11th 050
UL7509(A) Music and Mind 16:10 17:25 Schober, M. F. 65 W. 11th 500
LC3307(A) Internship Seminar 18:00 19:50 Campolieta, J. 65 W. 11th 261
NS2189(A) Critical Security Studies 18:00 19:50 Hoffman, P. 65 W. 11th 259
NS4526(B) Advanced Seminar EPSM 18:00 19:50 Martinez, C. 65 W. 11th 465
NS5662(A) Movements in World Cinema 2 18:00 19:50 Alvarado-Diaz, A. 65 W. 11th 050
NS7948(A) Honors Multi-Genre Workshop 18:00 19:50 Zhang, J. J. 65 W. 11th 464
NS8359(C) Management Capstone 18:00 19:50 Marc, L. A. S. 65 W. 11th 262